sensor_id;sensor_type;location;lat;lon;timestamp;pressure;altitude;pressure_sealevel;temperature;humidity
22862;BME280;11598;50.652;6.172;2023-02-12T00:07:32;98482.09;;;4.00;100.00
22862;BME280;11598;50.652;6.172;2023-02-12T00:17:33;98481.22;;;4.01;100.00
22862;BME280;11598;50.652;6.172;2023-02-12T00:27:34;98478.69;;;3.98;100.00
22862;BME280;11598;50.652;6.172;2023-02-12T00:37:35;98475.34;;;3.93;100.00
22862;BME280;11598;50.652;6.172;2023-02-12T00:47:35;98471.91;;;3.92;100.00
22862;BME280;11598;50.652;6.172;2023-02-12T00:57:35;98477.88;;;3.96;100.00
22862;BME280;11598;50.652;6.172;2023-02-12T01:07:36;98495.03;;;3.95;100.00
22862;BME280;11598;50.652;6.172;2023-02-12T01:17:37;98485.59;;;3.94;100.00
22862;BME280;11598;50.652;6.172;2023-02-12T01:27:38;98475.31;;;3.94;100.00
22862;BME280;11598;50.652;6.172;2023-02-12T01:37:39;98472.78;;;3.91;100.00
22862;BME280;11598;50.652;6.172;2023-02-12T01:47:44;98459.94;;;3.90;100.00
22862;BME280;11598;50.652;6.172;2023-02-12T01:57:46;98461.69;;;3.89;100.00
22862;BME280;11598;50.652;6.172;2023-02-12T02:07:47;98468.50;;;3.90;100.00
22862;BME280;11598;50.652;6.172;2023-02-12T02:17:52;98454.88;;;3.87;100.00
22862;BME280;11598;50.652;6.172;2023-02-12T02:58:24;98436.06;;;3.83;100.00
22862;BME280;11598;50.652;6.172;2023-02-12T03:08:32;98434.38;;;3.82;100.00
22862;BME280;11598;50.652;6.172;2023-02-12T03:18:45;98430.13;;;3.79;100.00
22862;BME280;11598;50.652;6.172;2023-02-12T03:28:49;98437.84;;;3.78;100.00
22862;BME280;11598;50.652;6.172;2023-02-12T03:38:53;98437.03;;;3.76;100.00
22862;BME280;11598;50.652;6.172;2023-02-12T03:49:06;98442.22;;;3.74;100.00
22862;BME280;11598;50.652;6.172;2023-02-12T03:59:08;98440.50;;;3.73;100.00
22862;BME280;11598;50.652;6.172;2023-02-12T04:09:10;98438.03;;;3.67;100.00
22862;BME280;11598;50.652;6.172;2023-02-12T04:19:15;98442.28;;;3.68;100.00
22862;BME280;11598;50.652;6.172;2023-02-12T04:29:34;98452.56;;;3.68;100.00
22862;BME280;11598;50.652;6.172;2023-02-12T04:39:40;98457.72;;;3.68;100.00
22862;BME280;11598;50.652;6.172;2023-02-12T04:49:41;98468.84;;;3.69;100.00
22862;BME280;11598;50.652;6.172;2023-02-12T04:59:42;98473.16;;;3.67;100.00
22862;BME280;11598;50.652;6.172;2023-02-12T05:09:42;98473.16;;;3.67;100.00
22862;BME280;11598;50.652;6.172;2023-02-12T05:19:42;98468.03;;;3.65;100.00
22862;BME280;11598;50.652;6.172;2023-02-12T05:29:43;98462.06;;;3.63;100.00
22862;BME280;11598;50.652;6.172;2023-02-12T05:39:43;98457.78;;;3.64;100.00
22862;BME280;11598;50.652;6.172;2023-02-12T05:49:44;98461.31;;;3.58;100.00
22862;BME280;11598;50.652;6.172;2023-02-12T05:59:44;98470.69;;;3.59;100.00
22862;BME280;11598;50.652;6.172;2023-02-12T06:09:44;98472.34;;;3.63;100.00
22862;BME280;11598;50.652;6.172;2023-02-12T06:19:45;98476.63;;;3.64;100.00
22862;BME280;11598;50.652;6.172;2023-02-12T06:29:45;98474.09;;;3.63;100.00
22862;BME280;11598;50.652;6.172;2023-02-12T06:39:45;98481.03;;;3.57;100.00
22862;BME280;11598;50.652;6.172;2023-02-12T06:49:46;98488.63;;;3.62;100.00
22862;BME280;11598;50.652;6.172;2023-02-12T06:59:46;98498.06;;;3.65;100.00
22862;BME280;11598;50.652;6.172;2023-02-12T07:09:46;98496.34;;;3.64;100.00
22862;BME280;11598;50.652;6.172;2023-02-12T07:19:47;98509.97;;;3.70;100.00
22862;BME280;11598;50.652;6.172;2023-02-12T07:29:47;98520.13;;;3.78;100.00
22862;BME280;11598;50.652;6.172;2023-02-12T07:39:48;98522.63;;;3.83;100.00
22862;BME280;11598;50.652;6.172;2023-02-12T07:49:49;98532.84;;;3.87;100.00
22862;BME280;11598;50.652;6.172;2023-02-12T07:59:49;98539.56;;;3.97;100.00
22862;BME280;11598;50.652;6.172;2023-02-12T08:09:50;98535.16;;;4.04;100.00
22862;BME280;11598;50.652;6.172;2023-02-12T08:19:50;98533.28;;;4.15;100.00
22862;BME280;11598;50.652;6.172;2023-02-12T08:29:50;98532.31;;;4.22;100.00
22862;BME280;11598;50.652;6.172;2023-02-12T08:39:51;98538.22;;;4.31;100.00
22862;BME280;11598;50.652;6.172;2023-02-12T08:49:51;98528.63;;;4.40;100.00
22862;BME280;11598;50.652;6.172;2023-02-12T08:59:51;98530.88;;;4.59;100.00
22862;BME280;11598;50.652;6.172;2023-02-12T09:09:52;98531.34;;;4.81;100.00
22862;BME280;11598;50.652;6.172;2023-02-12T09:19:53;98538.00;;;4.94;100.00
22862;BME280;11598;50.652;6.172;2023-02-12T09:29:53;98540.31;;;5.08;100.00
22862;BME280;11598;50.652;6.172;2023-02-12T09:39:53;98537.59;;;5.14;100.00
22862;BME280;11598;50.652;6.172;2023-02-12T10:00:27;98552.50;;;5.43;100.00
22862;BME280;11598;50.652;6.172;2023-02-12T10:11:19;98551.41;;;5.55;100.00
22862;BME280;11598;50.652;6.172;2023-02-12T10:21:37;98563.38;;;5.58;100.00
22862;BME280;11598;50.652;6.172;2023-02-12T10:31:43;98559.06;;;5.60;100.00
22862;BME280;11598;50.652;6.172;2023-02-12T10:42:18;98563.31;;;5.61;100.00
22862;BME280;11598;50.652;6.172;2023-02-12T11:02:32;98557.13;;;5.69;100.00
22862;BME280;11598;50.652;6.172;2023-02-12T11:12:35;98550.66;;;5.90;100.00
22862;BME280;11598;50.652;6.172;2023-02-12T11:22:35;98536.81;;;5.95;100.00
22862;BME280;11598;50.652;6.172;2023-02-12T11:32:36;98524.69;;;6.00;100.00
22862;BME280;11598;50.652;6.172;2023-02-12T11:42:36;98502.22;;;6.03;100.00
22862;BME280;11598;50.652;6.172;2023-02-12T11:52:39;98499.66;;;6.02;100.00
22862;BME280;11598;50.652;6.172;2023-02-12T12:02:44;98496.41;;;5.93;100.00
22862;BME280;11598;50.652;6.172;2023-02-12T12:12:56;98481.66;;;6.00;100.00
22862;BME280;11598;50.652;6.172;2023-02-12T12:23:18;98470.34;;;6.04;100.00
22862;BME280;11598;50.652;6.172;2023-02-12T12:54:03;98449.94;;;6.31;100.00
22862;BME280;11598;50.652;6.172;2023-02-12T13:04:31;98449.03;;;6.32;100.00
22862;BME280;11598;50.652;6.172;2023-02-12T13:14:44;98436.06;;;6.35;99.50
22862;BME280;11598;50.652;6.172;2023-02-12T13:24:56;98422.06;;;6.44;100.00
22862;BME280;11598;50.652;6.172;2023-02-12T13:35:01;98408.31;;;6.43;98.75
22862;BME280;11598;50.652;6.172;2023-02-12T13:55:30;98406.31;;;6.20;98.85
22862;BME280;11598;50.652;6.172;2023-02-12T14:05:34;98394.31;;;6.19;99.86
22862;BME280;11598;50.652;6.172;2023-02-12T14:15:37;98389.88;;;6.24;99.72
22862;BME280;11598;50.652;6.172;2023-02-12T14:25:43;98393.34;;;6.23;100.00
22862;BME280;11598;50.652;6.172;2023-02-12T14:35:48;98386.59;;;6.18;100.00
22862;BME280;11598;50.652;6.172;2023-02-12T14:45:49;98397.00;;;6.14;100.00
22862;BME280;11598;50.652;6.172;2023-02-12T14:55:50;98397.94;;;6.12;100.00
22862;BME280;11598;50.652;6.172;2023-02-12T15:06:18;98400.53;;;6.12;100.00
22862;BME280;11598;50.652;6.172;2023-02-12T15:16:53;98404.91;;;6.08;100.00
22862;BME280;11598;50.652;6.172;2023-02-12T15:26:57;98405.94;;;6.01;100.00
22862;BME280;11598;50.652;6.172;2023-02-12T15:37:01;98400.94;;;5.95;100.00
22862;BME280;11598;50.652;6.172;2023-02-12T15:47:11;98397.47;;;5.96;100.00
22862;BME280;11598;50.652;6.172;2023-02-12T15:57:18;98379.44;;;5.95;100.00
22862;BME280;11598;50.652;6.172;2023-02-12T16:07:20;98383.84;;;5.89;100.00
22862;BME280;11598;50.652;6.172;2023-02-12T16:17:29;98375.47;;;5.80;100.00
22862;BME280;11598;50.652;6.172;2023-02-12T16:27:33;98372.25;;;5.71;100.00
22862;BME280;11598;50.652;6.172;2023-02-12T16:47:34;98376.22;;;5.49;100.00
22862;BME280;11598;50.652;6.172;2023-02-12T16:57:34;98384.97;;;5.42;100.00
22862;BME280;11598;50.652;6.172;2023-02-12T17:07:35;98387.66;;;5.37;100.00
22862;BME280;11598;50.652;6.172;2023-02-12T17:17:35;98386.84;;;5.34;100.00
22862;BME280;11598;50.652;6.172;2023-02-12T17:27:35;98377.53;;;5.28;100.00
22862;BME280;11598;50.652;6.172;2023-02-12T17:37:36;98370.03;;;5.17;100.00
22862;BME280;11598;50.652;6.172;2023-02-12T17:47:36;98378.03;;;5.06;100.00
22862;BME280;11598;50.652;6.172;2023-02-12T17:57:39;98386.78;;;4.98;100.00
22862;BME280;11598;50.652;6.172;2023-02-12T18:07:39;98387.78;;;4.92;100.00
22862;BME280;11598;50.652;6.172;2023-02-12T18:17:41;98386.22;;;4.83;100.00
22862;BME280;11598;50.652;6.172;2023-02-12T18:27:42;98385.59;;;4.72;100.00
22862;BME280;11598;50.652;6.172;2023-02-12T18:37:42;98367.09;;;4.53;100.00
22862;BME280;11598;50.652;6.172;2023-02-12T18:47:42;98369.22;;;4.33;100.00
22862;BME280;11598;50.652;6.172;2023-02-12T18:57:43;98357.53;;;4.13;100.00
22862;BME280;11598;50.652;6.172;2023-02-12T19:07:43;98350.94;;;4.00;100.00
22862;BME280;11598;50.652;6.172;2023-02-12T19:17:43;98347.72;;;3.86;100.00
22862;BME280;11598;50.652;6.172;2023-02-12T19:27:44;98357.31;;;3.76;100.00
22862;BME280;11598;50.652;6.172;2023-02-12T19:37:44;98341.19;;;3.69;100.00
22862;BME280;11598;50.652;6.172;2023-02-12T19:47:45;98329.34;;;3.59;100.00
22862;BME280;11598;50.652;6.172;2023-02-12T19:57:45;98327.81;;;3.47;100.00
22862;BME280;11598;50.652;6.172;2023-02-12T20:07:47;98327.13;;;3.36;100.00
22862;BME280;11598;50.652;6.172;2023-02-12T20:17:47;98322.16;;;3.25;100.00
22862;BME280;11598;50.652;6.172;2023-02-12T20:27:47;98318.78;;;3.22;100.00
22862;BME280;11598;50.652;6.172;2023-02-12T20:37:48;98322.38;;;3.13;100.00
22862;BME280;11598;50.652;6.172;2023-02-12T20:47:48;98324.94;;;3.11;100.00
22862;BME280;11598;50.652;6.172;2023-02-12T20:57:49;98319.03;;;3.05;100.00
22862;BME280;11598;50.652;6.172;2023-02-12T21:07:49;98319.94;;;3.02;100.00
22862;BME280;11598;50.652;6.172;2023-02-12T21:17:49;98313.13;;;2.98;100.00
22862;BME280;11598;50.652;6.172;2023-02-12T21:27:51;98311.50;;;2.94;100.00
22862;BME280;11598;50.652;6.172;2023-02-12T21:37:52;98306.38;;;2.92;100.00
22862;BME280;11598;50.652;6.172;2023-02-12T21:47:52;98312.44;;;2.87;100.00
22862;BME280;11598;50.652;6.172;2023-02-12T21:57:52;98321.06;;;2.83;100.00
22862;BME280;11598;50.652;6.172;2023-02-12T22:07:53;98329.66;;;2.79;100.00
22862;BME280;11598;50.652;6.172;2023-02-12T22:17:53;98324.59;;;2.74;100.00
22862;BME280;11598;50.652;6.172;2023-02-12T22:27:54;98338.25;;;2.76;100.00
22862;BME280;11598;50.652;6.172;2023-02-12T22:37:54;98334.31;;;2.50;100.00
22862;BME280;11598;50.652;6.172;2023-02-12T22:47:54;98314.84;;;2.32;100.00
22862;BME280;11598;50.652;6.172;2023-02-12T22:57:55;98330.09;;;2.45;100.00
22862;BME280;11598;50.652;6.172;2023-02-12T23:07:55;98325.78;;;2.48;100.00
22862;BME280;11598;50.652;6.172;2023-02-12T23:17:56;98326.72;;;2.41;100.00
22862;BME280;11598;50.652;6.172;2023-02-12T23:27:56;98325.94;;;2.36;100.00
22862;BME280;11598;50.652;6.172;2023-02-12T23:37:56;98316.50;;;2.37;100.00
22862;BME280;11598;50.652;6.172;2023-02-12T23:47:57;98307.97;;;2.36;100.00
22862;BME280;11598;50.652;6.172;2023-02-12T23:57:58;98301.16;;;2.32;100.00
